Terminal Aerodrome Forecast
Issued by NWS

Home | Current Version | Previous Version | Text Only | Print | Product List | Glossary Off
Versions: 1 2 3 4 5 6 7 8 9 10 11 12

000
FTUS43 KICT 300521
TAFSLN
TAF
KSLN 300521Z 3006/0106 30011KT P6SM BKN060
     FM301400 29014KT P6SM SCT200
     FM301900 30019G27KT P6SM SCT150
     FM302300 30011KT P6SM FEW200=

USA.gov is the U.S. government's official web portal to all federal, state and local government web resources and services.